Time;durP1;ratioP1;P1;durP2;ratioP2;P2;SDS_P1;SDS_P2;PMS_P1;PMS_P2;Temp;Humidity;BMP_temperature;BMP_pressure;BME280_temperature;BME280_humidity;BME280_pressure;Samples;Min_cycle;Max_cycle;Signal;HPM_P1;HPM_P2
2023/03/04 00:01:36;;;;;;;18.95;4.30;;;;;;;4.46;84.02;102662.28;6245446;23;20079;-79
2023/03/04 00:04:26;;;;;;;18.38;3.63;;;;;;;4.45;84.29;102668.25;6245709;23;20026;-78
2023/03/04 00:07:06;;;;;;;24.92;4.82;;;;;;;3.99;84.05;102591.91;6245770;23;20411;-78
2023/03/04 00:10:21;;;;;;;17.75;4.55;;;;;;;4.45;84.37;102666.56;6246167;23;20008;-78
2023/03/04 00:13:30;;;;;;;18.55;4.28;;;;;;;4.44;84.44;102666.56;6245911;23;20004;-78
2023/03/04 00:19:24;;;;;;;16.23;3.60;;;;;;;4.01;84.95;102595.28;6245868;23;20058;-79
2023/03/04 00:25:35;;;;;;;15.35;3.65;;;;;;;4.39;84.70;102655.50;6246032;23;20073;-81
2023/03/04 00:28:58;;;;;;;16.27;3.63;;;;;;;4.36;84.64;102661.50;6248491;22;20015;-79
2023/03/04 00:39:03;;;;;;;;;;;;;;;;;;;;;
2023/03/04 00:41:57;;;;;;;15.18;3.22;;;;;;;3.16;84.47;102458.78;6089403;23;20096;-82
2023/03/04 00:44:22;;;;;;;14.52;3.25;;;;;;;3.64;84.51;102534.25;6094089;23;20010;-82
2023/03/04 00:47:00;;;;;;;12.38;3.20;;;;;;;4.36;85.19;102655.53;6093860;23;20017;-80
2023/03/04 00:50:11;;;;;;;16.70;3.83;;;;;;;4.36;84.85;102656.41;6094074;23;20381;-77
2023/03/04 00:56:34;;;;;;;14.00;3.20;;;;;;;4.37;84.64;102663.19;5979911;24;20363;-79
2023/03/04 00:58:59;;;;;;;15.77;3.10;;;;;;;3.25;85.10;102475.75;5980239;24;20098;-84
2023/03/04 01:01:49;;;;;;;14.35;2.92;;;;;;;3.66;85.11;102542.72;5980210;24;20043;-79
2023/03/04 01:12:02;;;;;;;18.63;3.10;;;;;;;4.35;85.57;102661.53;6009225;23;20016;-79
2023/03/04 01:18:27;;;;;;;19.35;3.78;;;;;;;4.31;85.55;102660.69;6008607;23;20505;-78
2023/03/04 01:21:07;;;;;;;15.60;3.58;;;;;;;3.09;84.88;102463.06;6035289;23;20016;-78
2023/03/04 01:29:02;;;;;;;10.85;2.50;;;;;;;3.87;84.92;102590.28;6275646;22;20019;-80
2023/03/04 01:32:05;;;;;;;15.18;3.17;;;;;;;4.30;85.00;102652.16;6277530;22;20486;-82
2023/03/04 01:34:57;;;;;;;16.38;2.90;;;;;;;4.31;85.32;102650.44;6277913;22;20008;-79
2023/03/04 01:37:41;;;;;;;13.48;3.13;;;;;;;4.30;85.74;102652.16;6277881;22;20417;-78
2023/03/04 01:40:58;;;;;;;12.82;2.72;;;;;;;4.29;85.90;102645.34;6250075;22;20061;-82
2023/03/04 01:43:37;;;;;;;14.73;2.80;;;;;;;3.53;85.61;102518.09;6250781;22;20019;-80
2023/03/04 01:49:57;;;;;;;19.65;3.13;;;;;;;4.26;85.62;102631.75;6277788;22;20050;-82
2023/03/04 01:53:07;;;;;;;13.35;3.00;;;;;;;3.47;85.51;102500.28;6277745;22;20004;-82
2023/03/04 01:55:33;;;;;;;14.70;2.42;;;;;;;3.85;85.27;102563.03;6276837;22;20015;-82
2023/03/04 01:58:45;;;;;;;10.93;2.22;;;;;;;4.21;85.68;102626.66;6277761;22;20345;-80
2023/03/04 02:01:35;;;;;;;;;;;;;;;4.24;85.54;102613.88;6251158;22;20326;-80
2023/03/04 02:08:02;;;;;;;12.57;2.28;;;;;;;4.26;85.79;102618.97;6277905;22;20066;-81
2023/03/04 02:11:23;;;;;;;13.18;2.72;;;;;;;4.27;85.95;102615.53;6277614;22;20082;-79
2023/03/04 02:14:08;;;;;;;14.63;2.50;;;;;;;4.25;86.10;102610.44;6277479;22;20004;-78
2023/03/04 02:16:39;;;;;;;13.32;2.95;;;;;;;3.03;85.93;102409.50;6277686;22;20023;-79
2023/03/04 02:19:14;;;;;;;13.88;3.63;;;;;;;4.24;86.58;102603.63;6277335;22;20049;-79
2023/03/04 02:21:43;;;;;;;11.25;2.67;;;;;;;4.22;86.62;102609.59;6250351;22;20000;-81
2023/03/04 02:24:58;;;;;;;12.13;3.05;;;;;;;4.23;86.75;102611.34;6277827;22;20007;-83
2023/03/04 02:27:33;;;;;;;11.65;2.75;;;;;;;3.15;86.93;102434.97;6272567;22;20413;-79
2023/03/04 02:30:53;;;;;;;16.60;2.90;;;;;;;3.34;87.23;102462.91;6246789;23;20039;-80
2023/03/04 02:44:04;;;;;;;13.25;2.63;;;;;;;4.22;87.32;102595.09;6216347;23;20062;-79
2023/03/04 02:47:04;;;;;;;12.63;2.20;;;;;;;4.20;87.42;102594.28;6216080;23;20362;-81
2023/03/04 02:52:54;;;;;;;11.30;2.67;;;;;;;3.05;86.92;102400.16;6216104;23;20063;-80
2023/03/04 02:55:38;;;;;;;11.48;2.63;;;;;;;3.09;87.31;102413.72;6267339;22;20016;-82
2023/03/04 02:58:24;;;;;;;15.25;2.70;;;;;;;4.16;87.42;102584.94;6186172;23;20031;-81
2023/03/04 03:01:07;;;;;;;9.18;2.38;;;;;;;3.77;87.92;102516.25;6210018;23;20083;-80
2023/03/04 03:03:33;;;;;;;12.45;2.85;;;;;;;3.04;87.38;102400.13;6246312;23;20058;-79
2023/03/04 03:09:51;;;;;;;13.02;3.08;;;;;;;4.14;87.80;102580.72;6246580;23;20023;-81
2023/03/04 03:15:36;;;;;;;15.10;3.13;;;;;;;3.65;88.11;102494.22;6185649;23;20016;-82
2023/03/04 03:20:32;;;;;;;12.43;2.90;;;;;;;4.17;88.34;102580.69;6306759;22;20330;-82
2023/03/04 03:22:57;;;;;;;14.05;2.65;;;;;;;4.12;88.46;102564.50;6307895;22;20022;-78
2023/03/04 03:28:58;;;;;;;13.77;3.13;;;;;;;4.16;88.77;102569.59;6212860;23;20005;-83
2023/03/04 03:38:16;;;;;;;14.60;3.22;;;;;;;4.15;88.21;102567.91;6213006;23;20100;-80
2023/03/04 03:40:58;;;;;;;11.80;3.22;;;;;;;3.35;88.29;102434.84;6212907;23;20471;-81
2023/03/04 03:43:29;;;;;;;27.35;2.90;;;;;;;3.94;87.88;102532.31;6213191;23;20015;-81
2023/03/04 03:46:01;;;;;;;13.77;2.95;;;;;;;3.39;87.80;102441.59;6213193;23;20009;-79
2023/03/04 03:48:35;;;;;;;13.18;2.90;;;;;;;3.07;87.96;102378.00;6212920;23;20008;-82
2023/03/04 03:54:43;;;;;;;11.93;2.47;;;;;;;3.27;86.99;102415.31;6212984;23;20019;-81
2023/03/04 03:57:29;;;;;;;11.00;2.22;;;;;;;4.18;86.69;102559.38;6212733;23;20263;-79
2023/03/04 04:02:53;;;;;;;15.35;3.25;;;;;;;4.15;86.92;102562.81;6273144;22;20168;-82
2023/03/04 04:05:36;;;;;;;15.95;3.28;;;;;;;3.41;87.25;102444.13;6252308;22;20023;-78
2023/03/04 04:08:34;;;;;;;12.77;2.20;;;;;;;3.04;87.03;102379.72;6276425;22;20000;-80
2023/03/04 04:11:30;;;;;;;15.18;2.95;;;;;;;4.15;87.30;102562.81;6275371;22;20011;-80
2023/03/04 04:14:13;;;;;;;15.57;2.55;;;;;;;3.78;87.07;102502.63;6276433;22;20030;-77
2023/03/04 04:16:38;;;;;;;10.82;2.42;;;;;;;3.77;87.21;102503.47;6249347;22;20516;-82
2023/03/04 04:19:03;;;;;;;12.73;2.55;;;;;;;4.15;86.92;102567.91;6248659;22;20035;-81
2023/03/04 04:21:29;;;;;;;13.75;2.80;;;;;;;4.11;86.43;102560.28;6267253;22;20076;-79
2023/03/04 04:30:51;;;;;;;16.52;2.47;;;;;;;2.82;86.03;102353.50;6275659;22;20242;-80
2023/03/04 04:34:07;;;;;;;13.00;2.63;;;;;;;4.17;86.52;102566.19;6276190;22;20095;-82
2023/03/04 04:36:51;;;;;;;13.75;2.92;;;;;;;4.15;86.72;102567.91;6276349;22;20003;-81
2023/03/04 04:39:38;;;;;;;12.60;2.42;;;;;;;4.17;86.24;102573.00;6275731;22;20088;-83
2023/03/04 04:42:20;;;;;;;13.27;2.45;;;;;;;3.33;86.25;102436.53;6276147;22;20074;-80
2023/03/04 04:44:51;;;;;;;9.70;2.08;;;;;;;3.06;86.41;102391.63;6276294;22;20095;-83
2023/03/04 04:50:31;;;;;;;12.27;2.50;;;;;;;3.30;86.88;102428.06;6276460;22;20062;-82
2023/03/04 04:53:49;;;;;;;11.57;2.53;;;;;;;4.18;87.17;102575.56;6275498;22;20006;-82
2023/03/04 04:59:36;;;;;;;;;;;;;;;4.20;86.85;102575.53;6276512;22;20018;-80
2023/03/04 05:04:49;;;;;;;14.50;2.40;;;;;;;3.76;86.80;102512.00;6270518;22;20023;-79
2023/03/04 05:13:52;;;;;;;15.50;2.30;;;;;;;4.16;87.62;102582.38;6276038;22;20073;-82
2023/03/04 05:17:10;;;;;;;13.10;3.00;;;;;;;4.17;87.65;102575.56;6276055;22;20045;-83
2023/03/04 05:19:35;;;;;;;10.80;2.78;;;;;;;3.43;87.52;102461.13;6276096;22;20003;-81
2023/03/04 05:22:10;;;;;;;11.90;2.50;;;;;;;4.02;87.62;102556.06;6222477;22;20011;-79
2023/03/04 05:28:20;;;;;;;21.98;3.65;;;;;;;2.99;87.82;102381.47;6152764;23;20069;-77
2023/03/04 05:30:57;;;;;;;14.15;2.30;;;;;;;3.31;87.63;102434.84;6110864;23;20017;-79
2023/03/04 05:33:29;;;;;;;8.48;2.78;;;;;;;2.90;87.75;102372.16;6152560;23;20028;-80
2023/03/04 05:36:33;;;;;;;7.90;2.15;;;;;;;4.11;87.83;102573.91;6152601;23;20045;-80
2023/03/04 05:42:29;;;;;;;12.77;3.05;;;;;;;2.95;88.00;102387.44;6152747;23;20109;-78
2023/03/04 05:45:22;;;;;;;13.38;3.08;;;;;;;3.46;88.69;102473.06;6152931;23;20017;-80
2023/03/04 05:48:13;;;;;;;11.63;3.20;;;;;;;3.35;88.60;102465.47;6110803;23;20063;-82
2023/03/04 05:50:39;;;;;;;11.65;3.15;;;;;;;4.03;89.33;102573.97;6152357;23;20084;-81
2023/03/04 05:53:35;;;;;;;10.38;2.38;;;;;;;4.09;89.62;102582.44;6152495;23;20403;-81
2023/03/04 05:56:40;;;;;;;12.55;2.60;;;;;;;2.81;89.83;102374.78;6152493;23;20006;-78
2023/03/04 05:59:27;;;;;;;11.00;2.50;;;;;;;3.54;89.55;102503.63;6152659;23;20014;-82
2023/03/04 06:02:11;;;;;;;9.38;2.30;;;;;;;3.63;89.32;102518.91;6152442;23;20008;-78
2023/03/04 06:05:28;;;;;;;8.55;2.30;;;;;;;4.03;89.64;102586.75;6197280;22;20033;-82
2023/03/04 06:07:59;;;;;;;7.28;2.33;;;;;;;2.84;89.67;102390.06;6277310;22;20011;-78
2023/03/04 06:11:10;;;;;;;9.68;2.30;;;;;;;4.00;90.27;102586.75;6277759;22;20409;-81
2023/03/04 06:13:37;;;;;;;8.60;2.72;;;;;;;4.01;90.50;102591.00;6277672;22;20425;-79
2023/03/04 06:16:05;;;;;;;11.55;2.28;;;;;;;3.59;90.67;102518.06;6277944;22;20326;-79
2023/03/04 06:18:58;;;;;;;12.60;2.60;;;;;;;4.03;90.51;102588.44;6250407;22;20373;-80
2023/03/04 06:21:34;;;;;;;6.30;1.65;;;;;;;3.22;91.32;102457.88;6277548;22;20075;-81
2023/03/04 06:31:06;;;;;;;7.43;2.42;;;;;;;2.87;92.55;102400.25;6277548;22;20342;-83
2023/03/04 06:37:18;;;;;;;11.10;2.37;;;;;;;3.97;93.39;102602.13;6277409;22;20158;-79
2023/03/04 06:40:06;;;;;;;6.60;1.63;;;;;;;2.78;93.91;102406.25;6277196;22;20253;-81
2023/03/04 06:43:09;;;;;;;8.95;1.77;;;;;;;2.80;93.59;102403.69;6277249;22;20000;-80
2023/03/04 06:46:00;;;;;;;10.93;2.30;;;;;;;2.70;94.56;102394.41;6277349;22;20008;-81
2023/03/04 06:48:35;;;;;;;8.38;2.15;;;;;;;3.39;95.67;102518.22;6153968;23;20063;-79
2023/03/04 06:51:30;;;;;;;12.07;2.33;;;;;;;3.07;95.75;102472.44;6269483;22;20010;-80
2023/03/04 06:54:04;;;;;;;9.25;2.33;;;;;;;3.91;96.60;102598.75;6152953;23;20009;-82
2023/03/04 06:56:38;;;;;;;5.65;2.05;;;;;;;3.91;96.98;102591.94;6154196;23;20161;-79
2023/03/04 06:59:20;;;;;;;10.27;2.40;;;;;;;3.57;96.78;102547.91;6128296;23;20008;-82
2023/03/04 07:01:45;;;;;;;9.73;2.45;;;;;;;3.24;97.38;102484.25;6128893;23;20016;-81
2023/03/04 07:07:45;;;;;;;11.18;2.22;;;;;;;3.10;97.85;102454.56;6128974;23;20088;-80
2023/03/04 07:17:31;;;;;;;10.02;2.25;;;;;;;3.90;97.74;102556.19;6123462;23;20068;-80
2023/03/04 07:20:06;;;;;;;8.18;2.28;;;;;;;3.40;97.98;102471.38;6084283;23;20040;-84
2023/03/04 07:22:31;;;;;;;11.63;2.22;;;;;;;3.40;97.60;102467.97;6186494;22;20022;-76
2023/03/04 07:25:24;;;;;;;10.77;2.10;;;;;;;4.28;96.74;102609.56;6308072;22;20003;-79
2023/03/04 07:28:41;;;;;;;13.75;3.00;;;;;;;3.21;96.94;102436.63;6307652;22;20079;-82
2023/03/04 07:31:51;;;;;;;9.52;2.10;;;;;;;3.25;96.26;102424.69;6182905;23;20016;-82
2023/03/04 07:35:00;;;;;;;9.15;2.20;;;;;;;4.42;96.44;102619.66;6184349;22;20020;-82
2023/03/04 07:37:31;;;;;;;9.55;2.40;;;;;;;3.33;96.10;102439.06;6183206;23;20072;-82
2023/03/04 07:40:03;;;;;;;10.20;2.55;;;;;;;4.42;95.80;102623.06;6183240;23;20017;-81
2023/03/04 07:42:43;;;;;;;;;;;;;;;4.49;95.44;102623.88;6183389;23;20009;-82
2023/03/04 07:45:09;;;;;;;10.40;2.33;;;;;;;4.52;96.19;102628.97;6183266;23;19912;-80
2023/03/04 07:47:34;;;;;;;8.73;2.30;;;;;;;4.37;95.45;102598.41;6182808;23;20001;-83
2023/03/04 07:50:00;;;;;;;12.57;2.60;;;;;;;4.61;95.34;102639.09;6182628;23;20009;-83
2023/03/04 07:52:25;;;;;;;9.93;3.15;;;;;;;4.66;95.27;102639.09;6182777;23;20011;-83
2023/03/04 07:54:50;;;;;;;9.52;2.70;;;;;;;4.54;95.01;102604.22;6182744;23;20419;-80
2023/03/04 08:07:07;;;;;;;9.40;3.15;;;;;;;5.13;93.73;102644.56;6275671;22;20253;-83
2023/03/04 08:09:38;;;;;;;8.23;3.42;;;;;;;4.14;92.70;102458.00;6275982;22;20007;-79
2023/03/04 08:12:04;;;;;;;9.13;2.92;;;;;;;5.21;92.38;102634.25;6275797;22;20023;-75
2023/03/04 08:14:51;;;;;;;11.20;3.70;;;;;;;5.33;92.26;102646.91;6276281;22;20010;-79
2023/03/04 08:17:16;;;;;;;11.27;3.35;;;;;;;5.41;91.96;102646.81;6276069;22;20083;-75
2023/03/04 08:19:42;;;;;;;11.23;2.88;;;;;;;4.81;91.04;102506.66;6276175;22;20386;-78
2023/03/04 08:22:08;;;;;;;12.15;2.72;;;;;;;5.07;89.43;102531.97;6275814;22;20054;-77
2023/03/04 08:24:38;;;;;;;6.80;2.72;;;;;;;5.25;88.82;102558.19;6276340;22;20377;-83
2023/03/04 08:27:03;;;;;;;10.30;2.53;;;;;;;5.40;89.32;102570.78;6276036;22;19999;-81
2023/03/04 08:29:32;;;;;;;10.00;2.67;;;;;;;4.93;88.54;102466.47;6276299;22;20026;-79
2023/03/04 08:32:00;;;;;;;12.57;2.72;;;;;;;5.43;89.15;102530.63;6249228;22;20540;-83
2023/03/04 08:34:38;;;;;;;7.75;2.70;;;;;;;5.99;88.05;102597.31;6275883;22;20000;-80
2023/03/04 08:37:06;;;;;;;12.50;3.40;;;;;;;5.71;87.40;102537.91;6276019;22;20006;-81
2023/03/04 08:39:34;;;;;;;11.93;2.97;;;;;;;5.87;85.93;102539.34;6276383;22;20054;-81
2023/03/04 08:42:46;;;;;;;14.20;3.10;;;;;;;6.62;86.98;102651.03;6276114;22;20000;-81
2023/03/04 08:45:31;;;;;;;;;;;;;;;6.79;86.30;102655.88;6276817;22;20047;-77
2023/03/04 08:48:01;;;;;;;6.95;1.90;;;;;;;5.71;86.46;102497.75;6274569;22;19921;-82
2023/03/04 08:50:29;;;;;;;8.77;2.08;;;;;;;5.64;87.51;102524.34;6275625;22;20007;-81
2023/03/04 08:53:05;;;;;;;7.78;2.20;;;;;;;6.47;87.21;102646.97;6248455;22;20310;-82
2023/03/04 08:55:31;;;;;;;8.55;2.20;;;;;;;6.64;87.36;102646.69;6247775;22;20016;-77
2023/03/04 08:58:15;;;;;;;8.70;2.22;;;;;;;6.86;85.70;102647.16;6275871;22;20075;-82
2023/03/04 09:01:01;;;;;;;8.15;2.35;;;;;;;5.87;84.64;102485.50;6276423;22;19999;-78
2023/03/04 09:04:19;;;;;;;6.95;2.88;;;;;;;6.84;85.24;102647.19;6276200;22;20061;-78
2023/03/04 09:06:59;;;;;;;8.15;3.20;;;;;;;6.34;85.19;102573.66;6275772;22;20011;-78
2023/03/04 09:10:17;;;;;;;9.02;2.55;;;;;;;6.87;84.44;102638.56;6275956;22;20000;-79
2023/03/04 09:19:40;;;;;;;6.25;2.47;;;;;;;6.53;83.30;102558.78;6123016;23;20094;-79
2023/03/04 09:22:05;;;;;;;10.73;2.67;;;;;;;7.00;83.15;102618.66;6122996;23;20038;-79
2023/03/04 09:27:52;;;;;;;8.55;2.40;;;;;;;6.65;81.87;102512.34;6122929;23;20450;-80
2023/03/04 09:30:20;;;;;;;8.25;2.33;;;;;;;6.76;81.60;102504.41;6074715;23;20006;-78
2023/03/04 09:33:00;;;;;;;8.80;2.25;;;;;;;7.26;80.88;102543.59;6123327;23;20009;-82
2023/03/04 09:35:51;;;;;;;10.90;2.10;;;;;;;6.71;80.47;102434.38;6252793;22;20023;-80
2023/03/04 09:39:10;;;;;;;;;;;;;;;;;;;;;
2023/03/04 09:42:19;;;;;;;8.57;2.83;;;;;;;7.78;80.00;102615.28;6152431;22;20091;-81
2023/03/04 09:45:06;;;;;;;5.70;2.08;;;;;;;7.71;79.30;102613.75;6278113;22;20011;-81
2023/03/04 09:47:45;;;;;;;7.43;2.17;;;;;;;7.16;78.97;102538.66;6277864;22;20056;-74
2023/03/04 09:56:05;;;;;;;8.52;1.73;;;;;;;6.81;81.42;102559.94;6278251;22;20030;-79
2023/03/04 09:59:15;;;;;;;7.88;2.05;;;;;;;7.23;81.65;102613.06;6259506;22;20012;-81
2023/03/04 10:02:30;;;;;;;7.07;2.03;;;;;;;7.25;81.27;102612.13;6245018;23;20016;-82
2023/03/04 10:17:37;;;;;;;10.30;3.08;;;;;;;7.13;79.65;102430.84;6246748;23;20019;-80
2023/03/04 10:20:39;;;;;;;9.43;2.70;;;;;;;8.42;78.73;102616.34;6183862;23;20091;-78
2023/03/04 10:23:13;;;;;;;7.70;2.30;;;;;;;8.50;77.72;102611.00;6183629;23;20064;-76
2023/03/04 10:25:44;;;;;;;8.02;2.85;;;;;;;7.85;77.85;102529.38;6184827;23;20013;-78
2023/03/04 10:51:56;;;;;;;4.10;1.60;;;;;;;6.80;89.44;102601.91;6183499;23;20093;-83
2023/03/04 11:01:04;;;;;;;4.10;1.50;;;;;;;7.09;88.70;102596.22;6258720;22;20032;31
2023/03/04 11:03:52;;;;;;;7.78;2.55;;;;;;;6.29;89.07;102483.94;6184242;23;20514;-81
2023/03/04 11:06:39;;;;;;;6.10;2.00;;;;;;;6.52;89.47;102523.72;6185801;23;20008;-77
2023/03/04 11:16:33;;;;;;;4.80;2.28;;;;;;;7.39;88.67;102579.31;6066000;23;20047;-78
2023/03/04 11:19:14;;;;;;;4.00;2.20;;;;;;;7.19;88.82;102494.09;6066132;23;20034;-82
2023/03/04 11:21:56;;;;;;;7.93;1.98;;;;;;;7.44;88.23;102513.19;6041238;23;20034;-81
2023/03/04 11:24:34;;;;;;;4.30;1.73;;;;;;;7.47;87.00;102504.56;6065851;23;20015;-81
2023/03/04 11:30:53;;;;;;;7.25;2.55;;;;;;;8.26;86.64;102561.81;6065562;23;20021;-81
2023/03/04 12:01:57;;;;;;;5.15;3.05;;;;;;;8.62;84.77;102525.69;6294494;22;20468;-80
2023/03/04 12:22:34;;;;;;;4.43;2.03;;;;;;;8.26;83.07;102507.78;6223872;23;20034;-82
2023/03/04 12:25:02;;;;;;;3.33;1.75;;;;;;;8.29;82.52;102497.38;6222697;23;20017;-82
2023/03/04 12:27:49;;;;;;;5.15;2.10;;;;;;;8.42;82.79;102491.94;6223688;23;20039;-84
2023/03/04 12:30:40;;;;;;;5.45;2.00;;;;;;;8.72;82.24;102483.34;6223563;23;20091;-83
2023/03/04 12:33:06;;;;;;;3.20;1.70;;;;;;;8.88;80.29;102479.44;6197221;23;20412;-80
2023/03/04 12:35:43;;;;;;;5.35;2.03;;;;;;;9.01;80.33;102482.50;6223840;23;20004;-80
2023/03/04 12:38:16;;;;;;;4.25;2.00;;;;;;;8.91;79.60;102470.78;6197098;23;20015;-81
2023/03/04 12:40:50;;;;;;;3.25;2.20;;;;;;;8.67;79.49;102467.19;6223383;23;20307;-84
2023/03/04 12:43:52;;;;;;;4.72;2.35;;;;;;;8.34;80.55;102436.34;6223461;23;20084;-82
2023/03/04 12:50:21;;;;;;;5.72;3.10;;;;;;;7.85;82.69;102385.34;6223215;23;20015;-77
2023/03/04 12:53:19;;;;;;;5.18;3.40;;;;;;;8.40;82.82;102463.66;6223697;23;20012;-84
2023/03/04 12:55:47;;;;;;;5.15;3.20;;;;;;;8.43;82.62;102462.72;6222224;23;20079;-78
2023/03/04 12:58:22;;;;;;;9.05;3.13;;;;;;;8.23;82.49;102424.63;6223635;23;20012;-80
2023/03/04 13:01:11;;;;;;;6.93;3.45;;;;;;;8.50;82.73;102452.22;6223460;23;20373;-81
2023/03/04 13:03:41;;;;;;;7.07;2.90;;;;;;;8.42;83.07;102455.88;6222507;23;20066;-77
2023/03/04 13:06:15;;;;;;;8.05;2.83;;;;;;;8.26;83.89;102456.28;6224167;23;20054;-82
2023/03/04 13:08:59;;;;;;;5.80;2.70;;;;;;;8.11;85.54;102454.13;6224762;23;20001;-84
2023/03/04 13:11:25;;;;;;;7.50;3.17;;;;;;;7.99;87.77;102463.00;6223835;23;20095;-82
2023/03/04 13:14:02;;;;;;;5.43;2.90;;;;;;;7.76;89.96;102432.72;6224442;23;20054;-80
2023/03/04 13:16:47;;;;;;;4.97;2.85;;;;;;;7.68;93.43;102455.22;6223199;23;20035;-80
2023/03/04 13:19:55;;;;;;;4.75;2.50;;;;;;;7.51;95.48;102459.94;6216535;23;20017;-82
2023/03/04 13:22:43;;;;;;;6.68;3.10;;;;;;;7.11;100.00;102436.91;6216514;23;20087;-79
2023/03/04 13:25:45;;;;;;;6.97;3.30;;;;;;;7.08;100.00;102458.38;6217063;23;20050;-81
2023/03/04 13:28:17;;;;;;;4.65;1.80;;;;;;;6.85;100.00;102447.75;6216262;23;20016;-82
2023/03/04 13:30:54;;;;;;;3.35;1.80;;;;;;;6.73;100.00;102448.00;6215883;23;20377;-78
2023/03/04 13:33:22;;;;;;;5.53;1.77;;;;;;;6.71;100.00;102452.34;6216534;23;20005;-83
2023/03/04 13:36:00;;;;;;;2.83;1.50;;;;;;;6.73;100.00;102448.00;6216297;23;20009;-83
2023/03/04 13:38:38;;;;;;;3.65;1.58;;;;;;;6.77;100.00;102441.91;6215950;23;20083;-81
2023/03/04 13:41:14;;;;;;;4.25;1.33;;;;;;;6.76;100.00;102443.63;6216227;23;20005;-82
2023/03/04 13:43:55;;;;;;;4.07;1.48;;;;;;;6.96;100.00;102439.81;6216029;23;20000;-80
2023/03/04 13:46:25;;;;;;;;;;;;;;;7.15;100.00;102434.22;6215927;23;20016;-82
2023/03/04 13:48:51;;;;;;;2.88;1.77;;;;;;;7.30;100.00;102429.63;6215966;23;19908;-84
2023/03/04 13:51:40;;;;;;;3.03;1.52;;;;;;;7.43;100.00;102413.00;6189478;23;20051;-77
2023/03/04 13:54:22;;;;;;;3.13;1.20;;;;;;;7.69;100.00;102423.50;6188914;23;20005;-84
2023/03/04 13:57:10;;;;;;;3.47;1.33;;;;;;;7.74;100.00;102395.91;6215947;23;20024;-82
2023/03/04 13:59:45;;;;;;;2.95;1.10;;;;;;;7.79;98.35;102410.41;6216102;23;20005;-81
2023/03/04 14:02:14;;;;;;;2.22;1.08;;;;;;;7.81;96.94;102424.06;6215485;23;20008;-81
2023/03/04 14:04:42;;;;;;;6.22;1.45;;;;;;;7.57;97.43;102410.09;6216090;23;20001;-81
2023/03/04 14:07:35;;;;;;;4.50;1.40;;;;;;;7.60;98.48;102421.16;6189055;23;20073;-80
2023/03/04 14:10:07;;;;;;;2.15;1.20;;;;;;;7.44;99.04;102402.69;6215978;23;20004;-80
2023/03/04 14:12:36;;;;;;;3.05;1.20;;;;;;;7.30;96.93;102402.19;6215613;23;20084;-80
2023/03/04 14:15:24;;;;;;;2.00;1.23;;;;;;;7.22;98.73;102403.25;6216045;23;20029;-83
2023/03/04 14:17:55;;;;;;;5.28;1.40;;;;;;;7.14;99.28;102411.97;6215087;23;20017;-79
2023/03/04 14:20:29;;;;;;;6.07;1.35;;;;;;;7.07;100.00;102419.84;6215410;23;20019;-77
2023/03/04 14:22:57;;;;;;;4.05;1.50;;;;;;;6.94;100.00;102416.72;6215675;23;20011;-79
2023/03/04 14:25:24;;;;;;;7.63;1.85;;;;;;;6.85;100.00;102419.50;6215674;23;20457;-79
2023/03/04 14:28:05;;;;;;;6.35;2.10;;;;;;;6.64;100.00;102386.59;6215584;23;20009;-83
2023/03/04 14:30:31;;;;;;;5.10;1.67;;;;;;;6.78;100.00;102410.22;6214916;23;20012;-82
2023/03/04 14:32:59;;;;;;;5.07;1.73;;;;;;;6.89;100.00;102408.28;6215256;23;20334;-78
2023/03/04 14:35:46;;;;;;;6.47;1.92;;;;;;;6.38;100.00;102280.22;6187056;23;20378;-78
2023/03/04 14:38:36;;;;;;;7.53;2.30;;;;;;;7.31;99.68;102397.91;6188758;23;20016;-79
2023/03/04 14:41:15;;;;;;;8.00;1.80;;;;;;;7.46;99.52;102398.34;6215893;23;20028;-78
2023/03/04 14:43:54;;;;;;;5.90;1.60;;;;;;;7.59;97.57;102383.47;6188661;23;20059;-81
2023/03/04 14:46:21;;;;;;;7.53;1.67;;;;;;;7.84;96.51;102385.41;6215137;23;20012;-79
2023/03/04 14:48:50;;;;;;;3.75;1.20;;;;;;;7.68;92.00;102372.13;6215712;23;20011;-80
2023/03/04 14:51:36;;;;;;;5.22;1.88;;;;;;;7.75;94.09;102389.03;6215597;23;20000;-82
2023/03/04 14:54:02;;;;;;;5.93;2.20;;;;;;;7.70;91.00;102383.19;6215645;23;20001;-82
2023/03/04 14:56:30;;;;;;;8.60;2.35;;;;;;;7.55;92.47;102371.56;6215403;23;20009;-78
2023/03/04 14:58:57;;;;;;;9.18;2.33;;;;;;;7.59;91.66;102382.63;6215512;23;20004;-78
2023/03/04 15:01:44;;;;;;;9.35;1.83;;;;;;;7.67;92.55;102379.00;6188000;23;20362;-80
2023/03/04 15:04:12;;;;;;;9.23;1.80;;;;;;;7.49;90.64;102366.59;6215535;23;20055;-81
2023/03/04 15:06:54;;;;;;;9.77;2.13;;;;;;;7.49;93.08;102379.44;6215231;23;20042;-78
2023/03/04 15:09:22;;;;;;;11.93;2.25;;;;;;;7.37;90.05;102382.31;6215559;23;20447;-81
2023/03/04 15:11:57;;;;;;;12.40;3.00;;;;;;;7.23;91.00;102376.69;6215571;23;20442;-81
2023/03/04 15:14:47;;;;;;;15.10;3.28;;;;;;;7.07;90.11;102377.03;6215382;23;20087;-81
2023/03/04 15:17:41;;;;;;;12.23;2.85;;;;;;;6.85;91.55;102378.41;6215014;23;20000;-82
2023/03/04 15:20:06;;;;;;;12.43;2.60;;;;;;;6.68;91.31;102376.22;6195678;23;20338;-76
2023/03/04 15:22:32;;;;;;;16.35;2.53;;;;;;;6.65;91.81;102367.75;6201554;23;20116;-78
2023/03/04 15:25:00;;;;;;;10.40;2.80;;;;;;;6.35;91.71;102330.75;6215335;23;20008;-82
2023/03/04 15:27:28;;;;;;;15.13;2.72;;;;;;;6.59;91.75;102382.41;6188589;23;20009;-80
2023/03/04 15:29:57;;;;;;;16.17;4.38;;;;;;;6.53;90.54;102368.84;6213129;23;20001;-83
2023/03/04 15:32:26;;;;;;;13.38;2.30;;;;;;;6.57;91.61;102376.44;6214842;23;20009;-83
2023/03/04 15:34:51;;;;;;;10.07;2.25;;;;;;;6.49;91.01;102362.09;6214868;23;20168;-81
2023/03/04 15:37:22;;;;;;;13.48;2.15;;;;;;;6.57;90.15;102365.34;6215201;23;20057;-83
2023/03/04 15:39:49;;;;;;;14.68;3.05;;;;;;;6.58;90.21;102360.16;6215329;23;19997;-82
2023/03/04 15:42:14;;;;;;;10.90;2.00;;;;;;;6.50;90.19;102341.53;6215166;23;20009;-81
2023/03/04 15:44:42;;;;;;;9.77;2.80;;;;;;;6.67;89.94;102363.41;6188845;23;20005;-77
2023/03/04 15:47:11;;;;;;;11.25;2.85;;;;;;;6.61;90.26;102356.72;6215189;23;20123;-81
2023/03/04 15:49:37;;;;;;;14.75;3.30;;;;;;;6.66;90.62;102367.69;6215942;23;20062;-79
2023/03/04 15:52:04;;;;;;;13.27;3.13;;;;;;;6.70;90.05;102364.22;6215397;23;20354;-79
2023/03/04 15:54:29;;;;;;;13.98;3.22;;;;;;;6.60;89.87;102353.28;6214994;23;20032;-78
2023/03/04 15:56:57;;;;;;;11.52;2.85;;;;;;;6.49;89.96;102345.00;6215065;23;20039;-81
2023/03/04 15:59:23;;;;;;;10.57;2.75;;;;;;;6.58;89.14;102367.88;6187670;23;20012;-79
2023/03/04 16:01:48;;;;;;;14.18;2.38;;;;;;;6.44;89.46;102369.91;6215078;23;20000;-80
2023/03/04 16:04:15;;;;;;;12.93;2.72;;;;;;;6.35;90.07;102372.66;6215129;23;20001;-80
2023/03/04 16:06:49;;;;;;;11.70;2.58;;;;;;;6.21;89.55;102349.84;6215432;23;20015;-81
2023/03/04 16:09:18;;;;;;;12.95;2.50;;;;;;;6.13;88.47;102351.72;6189196;23;20378;-82
2023/03/04 16:11:46;;;;;;;12.05;2.38;;;;;;;6.07;90.32;102359.53;6188496;23;20004;-81
2023/03/04 16:14:26;;;;;;;12.93;2.13;;;;;;;5.72;90.04;102293.53;6193236;23;20017;-81
2023/03/04 16:16:58;;;;;;;12.38;3.10;;;;;;;5.37;89.53;102246.34;6185454;23;20037;-80
2023/03/04 16:19:54;;;;;;;;;;;;;;;6.17;89.52;102363.59;6183393;23;20016;-82
2023/03/04 16:22:32;;;;;;;;;;;;;;;6.12;89.38;102362.03;6185493;23;19939;-80
2023/03/04 16:25:14;;;;;;;;;;;;;;;6.11;89.90;102361.19;6185398;23;19991;-82
2023/03/04 16:27:39;;;;;;;;;;;;;;;6.12;89.69;102364.59;6185189;23;19966;-79
2023/03/04 16:30:35;;;;;;;;;;;;;;;6.12;89.43;102351.75;6186509;23;19908;-80
2023/03/04 16:33:03;;;;;;;;;;;;;;;6.09;88.68;102354.38;6185105;23;19912;-82
2023/03/04 16:35:28;;;;;;;;;;;;;;;6.06;89.12;102357.84;6185260;23;19946;-81
2023/03/04 16:38:28;;;;;;;;;;;;;;;6.02;89.39;102351.94;6185779;23;19963;-79
2023/03/04 16:40:54;;;;;;;;;;;;;;;6.03;89.01;102356.19;6185816;23;19909;-82
2023/03/04 16:43:35;;;;;;;;;;;;;;;6.00;89.16;102356.25;6185661;23;19959;-81
2023/03/04 16:46:00;;;;;;;;;;;;;;;5.99;89.18;102359.66;6185110;23;19908;-81
2023/03/04 16:48:44;;;;;;;;;;;;;;;6.02;89.55;102353.66;6185199;23;19915;-77
2023/03/04 16:51:17;;;;;;;;;;;;;;;5.98;88.40;102364.84;6182929;23;19930;-75
2023/03/04 16:53:51;;;;;;;;;;;;;;;5.98;88.05;102359.72;6186415;23;19908;-78
2023/03/04 16:56:20;;;;;;;;;;;;;;;5.98;88.91;102362.28;6186972;23;19927;-80
2023/03/04 16:58:54;;;;;;;;;;;;;;;5.91;87.93;102361.56;6187302;23;19979;-79